createdAt,value
2018-04-08T00:00:23.813Z,16.00
2018-04-08T00:02:50.098Z,16.00
2018-04-08T00:05:16.350Z,16.10
2018-04-08T00:07:42.650Z,15.90
2018-04-08T00:10:09.687Z,15.80
2018-04-08T00:12:35.982Z,15.80
2018-04-08T00:15:02.227Z,15.80
2018-04-08T00:17:28.650Z,15.80
2018-04-08T00:19:55.853Z,15.80
2018-04-08T00:22:22.914Z,15.80
2018-04-08T00:24:49.142Z,15.80
2018-04-08T00:27:15.546Z,15.70
2018-04-08T00:29:42.533Z,15.80
2018-04-08T00:32:08.815Z,15.70
2018-04-08T00:34:35.074Z,16.20
2018-04-08T00:37:01.331Z,15.90
2018-04-08T00:39:28.363Z,15.90
2018-04-08T00:41:55.270Z,15.90
2018-04-08T00:44:21.370Z,16.10
2018-04-08T00:46:47.449Z,16.00
2018-04-08T00:49:13.790Z,15.90
2018-04-08T00:51:40.098Z,15.90
2018-04-08T00:54:18.653Z,16.30
2018-04-08T00:56:44.938Z,15.50
2018-04-08T00:59:11.233Z,16.40
2018-04-08T01:01:38.227Z,15.90
2018-04-08T01:04:04.488Z,15.20
2018-04-08T01:06:30.665Z,15.80
2018-04-08T01:08:57.030Z,15.80
2018-04-08T01:11:23.113Z,15.70
2018-04-08T01:13:50.151Z,15.60
2018-04-08T01:16:16.405Z,15.60
2018-04-08T01:18:42.654Z,15.50
2018-04-08T01:21:09.672Z,15.40
2018-04-08T01:23:35.754Z,15.40
2018-04-08T01:26:02.013Z,15.70
2018-04-08T01:28:29.089Z,15.30
2018-04-08T01:30:55.464Z,15.20
2018-04-08T01:33:21.803Z,15.60
2018-04-08T01:35:48.115Z,15.10
2018-04-08T01:38:14.604Z,15.40
2018-04-08T01:40:40.930Z,15.10
2018-04-08T01:43:07.221Z,15.20
2018-04-08T01:45:34.258Z,14.90
2018-04-08T01:48:00.574Z,14.80
2018-04-08T01:50:26.942Z,15.20
2018-04-08T01:52:53.269Z,14.80
2018-04-08T01:55:19.544Z,14.80
2018-04-08T01:57:46.555Z,14.60
2018-04-08T02:00:13.001Z,14.60
2018-04-08T02:02:40.096Z,14.50
2018-04-08T02:05:06.374Z,14.50
2018-04-08T02:07:32.642Z,14.60
2018-04-08T02:09:59.034Z,14.50
2018-04-08T02:12:26.146Z,14.30
2018-04-08T02:14:52.470Z,14.50
2018-04-08T02:17:18.568Z,14.20
2018-04-08T02:19:45.695Z,14.20
2018-04-08T02:22:11.789Z,14.50
2018-04-08T02:24:38.054Z,14.10
2018-04-08T02:27:04.326Z,14.20
2018-04-08T02:29:30.662Z,14.00
2018-04-08T02:31:57.007Z,14.00
2018-04-08T02:34:24.203Z,13.90
2018-04-08T02:36:52.318Z,13.90
2018-04-08T02:39:18.398Z,13.90
2018-04-08T02:41:44.540Z,13.90
2018-04-08T02:44:11.389Z,13.80
2018-04-08T02:46:37.500Z,14.30
2018-04-08T02:49:03.616Z,13.80
2018-04-08T02:51:29.785Z,14.00
2018-04-08T02:53:56.789Z,13.80
2018-04-08T02:56:22.907Z,13.50
2018-04-08T02:58:49.746Z,13.90
2018-04-08T03:01:15.885Z,13.90
2018-04-08T03:03:42.756Z,14.00
2018-04-08T03:06:09.595Z,14.00
2018-04-08T03:08:35.687Z,14.00
2018-04-08T03:11:01.801Z,14.10
2018-04-08T03:13:28.668Z,14.20
2018-04-08T03:15:54.893Z,14.00
2018-04-08T03:18:21.034Z,14.20
2018-04-08T03:20:48.192Z,14.30
2018-04-08T03:23:14.359Z,14.30
2018-04-08T03:25:40.461Z,14.60
2018-04-08T03:28:06.610Z,14.30
2018-04-08T03:30:32.686Z,14.40
2018-04-08T03:32:58.820Z,14.40
2018-04-08T03:35:25.006Z,14.40
2018-04-08T03:37:51.092Z,14.70
2018-04-08T03:40:17.895Z,14.50
2018-04-08T03:42:44.761Z,14.50
2018-04-08T03:45:10.842Z,14.60
2018-04-08T03:47:36.913Z,14.50
2018-04-08T03:50:03.710Z,14.50
2018-04-08T03:52:29.818Z,14.40
2018-04-08T03:54:56.014Z,14.50
2018-04-08T03:57:22.866Z,14.60
2018-04-08T03:59:48.950Z,14.50
2018-04-08T04:02:20.113Z,14.50
2018-04-08T04:04:46.952Z,14.60
2018-04-08T04:07:13.819Z,14.60
2018-04-08T04:09:39.902Z,14.40
2018-04-08T04:12:06.006Z,14.60
2018-04-08T04:14:32.079Z,14.70
2018-04-08T04:16:58.216Z,14.60
2018-04-08T04:19:36.745Z,14.60
2018-04-08T04:22:15.213Z,14.30
2018-04-08T04:24:54.450Z,14.60
2018-04-08T04:27:20.541Z,14.20
2018-04-08T04:29:46.654Z,14.60
2018-04-08T04:32:12.811Z,14.60
2018-04-08T04:34:38.934Z,14.60
2018-04-08T04:37:05.022Z,14.60
2018-04-08T04:39:31.093Z,14.60
2018-04-08T04:41:58.495Z,14.60
2018-04-08T04:44:24.722Z,14.50
2018-04-08T04:46:50.806Z,14.60
2018-04-08T04:49:16.891Z,14.90
2018-04-08T04:51:43.093Z,15.60
2018-04-08T04:54:09.220Z,14.60
2018-04-08T04:56:35.333Z,14.80
2018-04-08T04:59:01.416Z,14.90
2018-04-08T05:01:28.332Z,14.60
2018-04-08T05:03:54.539Z,14.60
2018-04-08T05:06:20.627Z,14.60
2018-04-08T05:08:46.710Z,15.00
2018-04-08T05:11:12.792Z,14.60
2018-04-08T05:13:38.930Z,14.90
2018-04-08T05:16:05.214Z,14.60
2018-04-08T05:18:31.506Z,14.90
2018-04-08T05:20:57.846Z,14.70
2018-04-08T05:23:24.192Z,14.60
2018-04-08T05:25:51.274Z,14.80
2018-04-08T05:28:17.559Z,14.80
2018-04-08T05:30:43.937Z,14.90
2018-04-08T05:33:10.253Z,14.90
2018-04-08T05:35:36.557Z,15.00
2018-04-08T05:38:02.946Z,15.00
2018-04-08T05:40:30.041Z,15.00
2018-04-08T05:42:57.133Z,15.20
2018-04-08T05:45:23.233Z,14.80
2018-04-08T05:47:49.523Z,15.10
2018-04-08T05:50:15.924Z,15.40
2018-04-08T05:52:42.241Z,15.30
2018-04-08T05:55:08.543Z,15.60
2018-04-08T05:57:34.877Z,15.40
2018-04-08T06:00:01.195Z,15.50
2018-04-08T06:02:27.563Z,15.70
2018-04-08T06:04:53.919Z,15.70
2018-04-08T06:07:20.240Z,15.80
2018-04-08T06:09:47.601Z,16.00
2018-04-08T06:12:14.642Z,16.20
2018-04-08T06:14:41.496Z,16.40
2018-04-08T06:17:07.599Z,16.30
2018-04-08T06:19:33.690Z,16.50
2018-04-08T06:21:59.815Z,16.60
2018-04-08T06:24:26.150Z,16.70
2018-04-08T06:26:52.298Z,16.90
2018-04-08T06:29:19.306Z,17.10
2018-04-08T06:31:45.518Z,17.10
2018-04-08T06:34:11.720Z,17.20
2018-04-08T06:36:37.828Z,17.20
2018-04-08T06:39:04.945Z,17.20
2018-04-08T06:41:35.726Z,17.50
2018-04-08T06:44:01.850Z,17.50
2018-04-08T06:46:28.058Z,17.50
2018-04-08T06:48:54.186Z,17.70
2018-04-08T06:51:21.047Z,17.60
2018-04-08T06:53:47.083Z,17.60
2018-04-08T06:56:13.242Z,17.60
2018-04-08T06:58:39.297Z,17.60
2018-04-08T07:01:05.358Z,17.70
2018-04-08T07:03:31.439Z,17.80
2018-04-08T07:05:58.375Z,17.90
2018-04-08T07:08:25.290Z,18.10
2018-04-08T07:10:51.398Z,18.10
2018-04-08T07:13:17.458Z,18.30
2018-04-08T07:15:43.598Z,18.60
2018-04-08T07:18:09.679Z,18.80
2018-04-08T07:20:35.743Z,19.10
2018-04-08T07:23:02.549Z,19.50
2018-04-08T07:25:28.795Z,19.50
2018-04-08T07:27:55.717Z,19.90
2018-04-08T07:30:21.801Z,19.90
2018-04-08T07:32:47.862Z,20.10
2018-04-08T07:35:14.708Z,20.50
2018-04-08T07:37:41.540Z,20.70
2018-04-08T07:40:07.603Z,20.70
2018-04-08T07:42:34.414Z,21.20
2018-04-08T07:45:00.551Z,21.40
2018-04-08T07:47:26.858Z,21.50
2018-04-08T07:49:54.108Z,21.80
2018-04-08T07:52:20.890Z,22.20
2018-04-08T07:54:46.937Z,22.20
2018-04-08T07:57:13.068Z,22.30
2018-04-08T07:59:39.130Z,22.40
2018-04-08T08:02:05.190Z,22.60
2018-04-08T08:04:31.379Z,22.90
2018-04-08T08:06:57.472Z,23.20
2018-04-08T08:09:23.559Z,23.30
2018-04-08T08:11:49.675Z,23.70
2018-04-08T08:14:15.846Z,23.30
2018-04-08T08:16:41.966Z,22.90
2018-04-08T08:19:08.042Z,22.80
2018-04-08T08:21:34.141Z,23.50
2018-04-08T08:24:00.279Z,22.80
2018-04-08T08:26:26.421Z,22.60
2018-04-08T08:28:52.750Z,22.50
2018-04-08T08:31:22.341Z,22.50
2018-04-08T08:33:49.146Z,22.60
2018-04-08T08:36:15.323Z,22.60
2018-04-08T08:38:41.397Z,22.50
2018-04-08T08:41:07.497Z,22.50
2018-04-08T08:43:33.555Z,22.80
2018-04-08T08:46:00.394Z,22.50
2018-04-08T08:48:27.263Z,22.50
2018-04-08T08:50:53.343Z,22.60
2018-04-08T08:53:19.421Z,22.60
2018-04-08T08:55:46.232Z,22.50
2018-04-08T08:58:12.326Z,22.60
2018-04-08T09:00:38.386Z,23.00
2018-04-08T09:03:04.442Z,22.70
2018-04-08T09:05:30.594Z,23.00
2018-04-08T09:07:56.787Z,22.80
2018-04-08T09:10:24.574Z,22.90
2018-04-08T09:12:50.710Z,23.50
2018-04-08T09:15:16.826Z,22.90
2018-04-08T09:17:42.940Z,23.40
2018-04-08T09:20:11.063Z,23.40
2018-04-08T09:22:37.353Z,23.50
2018-04-08T09:25:03.628Z,23.90
2018-04-08T09:27:30.643Z,23.40
2018-04-08T09:29:56.989Z,23.50
2018-04-08T09:32:23.298Z,23.60
2018-04-08T09:34:49.633Z,23.60
2018-04-08T09:37:15.978Z,23.70
2018-04-08T09:39:42.264Z,23.80
2018-04-08T09:42:08.570Z,24.10
2018-04-08T09:44:34.828Z,24.00
2018-04-08T09:47:01.150Z,24.50
2018-04-08T09:49:28.613Z,24.30
2018-04-08T09:51:55.010Z,24.40
2018-04-08T09:54:21.366Z,24.50
2018-04-08T09:56:47.665Z,24.70
2018-04-08T09:59:14.095Z,24.60
2018-04-08T10:01:47.146Z,24.70
2018-04-08T10:04:13.427Z,24.70
2018-04-08T10:06:39.699Z,24.70
2018-04-08T10:09:05.973Z,24.50
2018-04-08T10:11:32.237Z,24.90
2018-04-08T10:13:58.600Z,25.00
2018-04-08T10:16:25.792Z,25.00
2018-04-08T10:18:52.167Z,25.00
2018-04-08T10:21:19.279Z,24.70
2018-04-08T10:23:45.702Z,24.70
2018-04-08T10:26:11.989Z,24.70
2018-04-08T10:28:38.330Z,24.60
2018-04-08T10:31:04.598Z,24.70
2018-04-08T10:33:30.888Z,24.60
2018-04-08T10:35:57.342Z,24.60
2018-04-08T10:38:24.653Z,24.70
2018-04-08T10:40:50.950Z,24.90
2018-04-08T10:43:17.322Z,24.70
2018-04-08T10:45:43.659Z,24.60
2018-04-08T10:48:10.711Z,24.50
2018-04-08T10:50:36.998Z,25.00
2018-04-08T10:53:03.308Z,24.60
2018-04-08T10:55:29.606Z,24.70
2018-04-08T10:57:56.774Z,24.70
2018-04-08T11:00:23.079Z,24.60
2018-04-08T11:02:49.379Z,24.80
2018-04-08T11:05:15.646Z,24.50
2018-04-08T11:07:42.674Z,25.00
2018-04-08T11:10:09.113Z,25.10
2018-04-08T11:12:35.394Z,25.00
2018-04-08T11:15:01.664Z,25.00
2018-04-08T11:17:28.016Z,25.10
2018-04-08T11:19:54.388Z,25.20
2018-04-08T11:22:21.487Z,25.30
2018-04-08T11:24:48.532Z,25.50
2018-04-08T11:27:14.975Z,25.50
2018-04-08T11:29:42.004Z,25.80
2018-04-08T11:32:08.272Z,25.30
2018-04-08T11:34:34.611Z,25.90
2018-04-08T11:37:00.893Z,25.80
2018-04-08T11:39:27.194Z,26.10
2018-04-08T11:41:53.452Z,25.90
2018-04-08T11:44:19.732Z,25.80
2018-04-08T11:46:45.979Z,25.80
2018-04-08T11:49:12.240Z,25.70
2018-04-08T11:51:39.288Z,26.20
2018-04-08T11:54:05.538Z,26.10
2018-04-08T11:56:31.846Z,26.40
2018-04-08T11:58:58.146Z,26.50
2018-04-08T12:01:25.290Z,26.70
2018-04-08T12:03:51.526Z,26.70
2018-04-08T12:06:17.823Z,27.00
2018-04-08T12:08:44.090Z,26.80
2018-04-08T12:11:11.177Z,26.90
2018-04-08T12:13:37.454Z,26.80
2018-04-08T12:16:03.715Z,27.00
2018-04-08T12:18:30.048Z,27.00
2018-04-08T12:20:56.448Z,27.10
2018-04-08T12:23:22.731Z,27.00
2018-04-08T12:25:49.708Z,26.70
2018-04-08T12:28:16.096Z,26.70
2018-04-08T12:30:42.394Z,26.70
2018-04-08T12:33:09.504Z,27.30
2018-04-08T12:35:35.763Z,27.20
2018-04-08T12:38:02.582Z,27.10
2018-04-08T12:40:28.854Z,27.40
2018-04-08T12:42:56.366Z,27.50
2018-04-08T12:45:24.883Z,27.70
2018-04-08T12:47:51.499Z,27.70
2018-04-08T12:50:19.578Z,27.20
2018-04-08T12:52:50.575Z,27.30
2018-04-08T12:55:16.970Z,27.20
2018-04-08T12:57:43.377Z,27.30
2018-04-08T13:00:10.242Z,27.30
2018-04-08T13:02:36.495Z,27.50
2018-04-08T13:05:02.788Z,27.70
2018-04-08T13:07:29.935Z,27.80
2018-04-08T13:09:56.327Z,27.80
2018-04-08T13:12:23.368Z,27.90
2018-04-08T13:14:49.742Z,27.90
2018-04-08T13:17:15.998Z,27.90
2018-04-08T13:19:42.388Z,28.10
2018-04-08T13:22:09.625Z,28.00
2018-04-08T13:24:35.884Z,27.90
2018-04-08T13:27:02.160Z,28.40
2018-04-08T13:29:29.235Z,28.00
2018-04-08T13:31:55.875Z,28.00
2018-04-08T13:34:22.143Z,28.10
2018-04-08T13:36:48.463Z,28.20
2018-04-08T13:39:14.807Z,28.30
2018-04-08T13:41:41.056Z,28.30
2018-04-08T13:44:07.326Z,28.60
2018-04-08T13:46:33.564Z,28.90
2018-04-08T13:49:00.064Z,28.30
2018-04-08T13:51:26.592Z,28.30
2018-04-08T13:53:53.854Z,28.30
2018-04-08T13:56:25.509Z,28.30
2018-04-08T13:58:51.821Z,28.30
2018-04-08T14:01:18.098Z,28.30
2018-04-08T14:03:44.979Z,28.30
2018-04-08T14:06:11.258Z,28.40
2018-04-08T14:08:37.534Z,28.60
2018-04-08T14:11:03.794Z,28.40
2018-04-08T14:13:34.846Z,28.50
2018-04-08T14:16:01.102Z,28.50
2018-04-08T14:18:27.498Z,28.30
2018-04-08T14:20:53.847Z,28.60
2018-04-08T14:23:20.126Z,28.30
2018-04-08T14:25:46.354Z,28.40
2018-04-08T14:28:12.690Z,28.40
2018-04-08T14:30:38.935Z,28.40
2018-04-08T14:33:09.959Z,28.40
2018-04-08T14:35:36.299Z,28.40
2018-04-08T14:38:03.329Z,28.40
2018-04-08T14:40:30.387Z,28.40
2018-04-08T14:42:56.861Z,28.30
2018-04-08T14:45:24.059Z,28.40
2018-04-08T14:47:51.195Z,28.30
2018-04-08T14:50:20.552Z,28.00
2018-04-08T14:52:46.946Z,27.90
2018-04-08T14:55:13.246Z,28.40
2018-04-08T14:57:39.546Z,28.40
2018-04-08T15:00:05.858Z,28.30
2018-04-08T15:02:32.934Z,28.30
2018-04-08T15:04:59.303Z,28.30
2018-04-08T15:07:30.669Z,28.30
2018-04-08T15:09:57.030Z,28.20
2018-04-08T15:12:23.351Z,28.20
2018-04-08T15:14:49.655Z,28.20
2018-04-08T15:17:15.977Z,28.10
2018-04-08T15:19:42.254Z,28.20
2018-04-08T15:22:08.561Z,28.00
2018-04-08T15:24:36.489Z,28.00
2018-04-08T15:27:02.797Z,27.90
2018-04-08T15:29:29.089Z,28.00
2018-04-08T15:31:55.456Z,28.00
2018-04-08T15:34:21.700Z,28.00
2018-04-08T15:36:48.044Z,28.00
2018-04-08T15:39:14.333Z,28.40
2018-04-08T15:41:40.634Z,28.30
2018-04-08T15:44:06.906Z,27.90
2018-04-08T15:46:33.942Z,27.80
2018-04-08T15:49:00.251Z,27.80
2018-04-08T15:51:26.594Z,27.70
2018-04-08T15:53:52.875Z,27.70
2018-04-08T15:56:19.886Z,27.60
2018-04-08T15:58:46.150Z,27.60
2018-04-08T16:01:12.395Z,27.60
2018-04-08T16:03:38.658Z,27.50
2018-04-08T16:06:05.675Z,27.40
2018-04-08T16:08:31.958Z,27.40
2018-04-08T16:10:58.239Z,27.40
2018-04-08T16:13:24.596Z,27.30
2018-04-08T16:15:51.658Z,27.30
2018-04-08T16:18:17.917Z,27.30
2018-04-08T16:20:44.982Z,27.20
2018-04-08T16:23:11.218Z,27.50
2018-04-08T16:25:37.535Z,27.10
2018-04-08T16:28:03.742Z,27.00
2018-04-08T16:30:30.830Z,26.90
2018-04-08T16:32:57.142Z,26.90
2018-04-08T16:35:23.420Z,26.90
2018-04-08T16:37:49.703Z,26.80
2018-04-08T16:40:15.958Z,27.20
2018-04-08T16:42:42.266Z,26.70
2018-04-08T16:45:08.523Z,26.70
2018-04-08T16:47:34.846Z,26.50
2018-04-08T16:50:01.165Z,26.60
2018-04-08T16:52:27.530Z,26.50
2018-04-08T16:54:53.807Z,26.40
2018-04-08T16:57:20.827Z,26.30
2018-04-08T16:59:47.058Z,26.20
2018-04-08T17:02:13.316Z,26.40
2018-04-08T17:04:39.550Z,26.30
2018-04-08T17:07:05.833Z,26.00
2018-04-08T17:09:32.069Z,25.90
2018-04-08T17:11:58.454Z,25.90
2018-04-08T17:14:24.749Z,25.80
2018-04-08T17:16:50.977Z,25.70
2018-04-08T17:19:17.267Z,25.50
2018-04-08T17:21:43.650Z,25.60
2018-04-08T17:24:10.046Z,25.60
2018-04-08T17:26:37.094Z,25.40
2018-04-08T17:29:03.563Z,25.40
2018-04-08T17:31:29.841Z,25.40
2018-04-08T17:33:56.174Z,25.30
2018-04-08T17:36:22.415Z,25.40
2018-04-08T17:38:48.727Z,25.30
2018-04-08T17:41:15.027Z,25.20
2018-04-08T17:43:41.379Z,25.00
2018-04-08T17:46:08.362Z,24.90
2018-04-08T17:48:34.627Z,24.80
2018-04-08T17:51:00.861Z,24.80
2018-04-08T17:53:28.005Z,24.60
2018-04-08T17:55:55.074Z,24.50
2018-04-08T17:58:21.338Z,24.40
2018-04-08T18:00:47.612Z,24.30
2018-04-08T18:03:13.940Z,24.30
2018-04-08T18:05:40.971Z,24.10
2018-04-08T18:08:07.995Z,23.90
2018-04-08T18:10:34.302Z,23.90
2018-04-08T18:13:01.282Z,23.70
2018-04-08T18:15:27.718Z,23.60
2018-04-08T18:17:54.240Z,23.60
2018-04-08T18:20:21.079Z,23.50
2018-04-08T18:22:48.176Z,23.40
2018-04-08T18:25:14.442Z,23.40
2018-04-08T18:27:41.428Z,23.10
2018-04-08T18:30:07.721Z,23.60
2018-04-08T18:32:34.013Z,22.90
2018-04-08T18:35:00.441Z,22.90
2018-04-08T18:37:26.801Z,22.50
2018-04-08T18:39:54.086Z,22.50
2018-04-08T18:42:20.460Z,22.30
2018-04-08T18:44:47.497Z,22.40
2018-04-08T18:47:14.374Z,22.30
2018-04-08T18:49:40.756Z,22.50
2018-04-08T18:52:07.078Z,21.90
2018-04-08T18:54:33.390Z,21.10
2018-04-08T18:57:00.749Z,22.10
2018-04-08T18:59:27.142Z,22.00
2018-04-08T19:01:53.483Z,22.00
2018-04-08T19:04:19.852Z,21.80
2018-04-08T19:06:46.399Z,21.80
2018-04-08T19:09:12.735Z,21.70
2018-04-08T19:11:38.991Z,22.00
2018-04-08T19:14:06.255Z,21.60
2018-04-08T19:16:32.558Z,21.50
2018-04-08T19:18:59.134Z,21.50
2018-04-08T19:21:25.561Z,21.50
2018-04-08T19:23:51.907Z,21.40
2018-04-08T19:26:18.190Z,21.30
2018-04-08T19:28:44.643Z,21.30
2018-04-08T19:31:11.706Z,21.20
2018-04-08T19:33:37.935Z,21.20
2018-04-08T19:36:04.238Z,21.80
2018-04-08T19:38:30.535Z,21.10
2018-04-08T19:40:56.836Z,21.70
2018-04-08T19:43:23.146Z,20.70
2018-04-08T19:45:49.496Z,20.60
2018-04-08T19:48:15.854Z,20.90
2018-04-08T19:50:42.123Z,21.00
2018-04-08T19:53:08.399Z,21.20
2018-04-08T19:55:34.666Z,20.70
2018-04-08T19:58:00.956Z,20.70
2018-04-08T20:00:27.255Z,20.30
2018-04-08T20:02:53.538Z,20.60
2018-04-08T20:05:20.539Z,20.50
2018-04-08T20:07:46.815Z,20.60
2018-04-08T20:10:13.079Z,20.40
2018-04-08T20:12:39.330Z,20.30
2018-04-08T20:15:05.639Z,20.50
2018-04-08T20:17:31.943Z,20.30
2018-04-08T20:19:58.406Z,20.10
2018-04-08T20:22:25.516Z,20.00
2018-04-08T20:24:52.502Z,19.90
2018-04-08T20:27:19.526Z,19.90
2018-04-08T20:29:46.581Z,19.80
2018-04-08T20:32:12.853Z,19.90
2018-04-08T20:34:39.106Z,19.80
2018-04-08T20:37:05.398Z,20.10
2018-04-08T20:39:31.660Z,19.70
2018-04-08T20:41:58.717Z,19.60
2018-04-08T20:44:25.808Z,19.50
2018-04-08T20:46:52.126Z,19.50
2018-04-08T20:49:19.176Z,19.40
2018-04-08T20:51:45.466Z,19.30
2018-04-08T20:54:11.794Z,19.30
2018-04-08T20:56:38.086Z,19.20
2018-04-08T20:59:04.434Z,19.10
2018-04-08T21:01:30.739Z,19.10
2018-04-08T21:03:57.103Z,19.00
2018-04-08T21:06:23.555Z,18.80
2018-04-08T21:08:50.039Z,18.90
2018-04-08T21:11:17.111Z,18.80
2018-04-08T21:13:43.338Z,19.00
2018-04-08T21:16:10.712Z,18.90
2018-04-08T21:18:37.019Z,18.70
2018-04-08T21:21:03.278Z,19.70
2018-04-08T21:23:30.378Z,18.60
2018-04-08T21:25:56.663Z,18.60
2018-04-08T21:28:22.998Z,18.50
2018-04-08T21:30:49.282Z,18.50
2018-04-08T21:33:15.639Z,17.80
2018-04-08T21:35:41.929Z,18.40
2018-04-08T21:38:08.977Z,18.40
2018-04-08T21:40:35.264Z,18.40
2018-04-08T21:43:01.558Z,18.30
2018-04-08T21:45:28.640Z,18.30
2018-04-08T21:47:55.005Z,18.80
2018-04-08T21:50:21.312Z,18.30
2018-04-08T21:52:47.651Z,18.20
2018-04-08T21:55:14.811Z,18.20
2018-04-08T21:57:41.090Z,18.10
2018-04-08T22:00:07.372Z,18.20
2018-04-08T22:02:33.664Z,18.10
2018-04-08T22:04:59.953Z,18.80
2018-04-08T22:07:26.315Z,18.00
2018-04-08T22:09:52.612Z,17.90
2018-04-08T22:12:18.951Z,18.20
2018-04-08T22:14:45.226Z,17.80
2018-04-08T22:17:11.546Z,17.70
2018-04-08T22:19:37.826Z,17.70
2018-04-08T22:22:04.079Z,17.60
2018-04-08T22:24:30.455Z,17.60
2018-04-08T22:26:56.773Z,17.80
2018-04-08T22:29:23.072Z,17.50
2018-04-08T22:31:49.356Z,17.40
2018-04-08T22:34:15.683Z,18.20
2018-04-08T22:36:45.682Z,17.40
2018-04-08T22:39:11.943Z,17.30
2018-04-08T22:41:38.194Z,17.30
2018-04-08T22:44:04.446Z,17.20
2018-04-08T22:46:31.444Z,17.10
2018-04-08T22:48:57.711Z,17.20
2018-04-08T22:51:24.756Z,17.00
2018-04-08T22:53:51.717Z,16.90
2018-04-08T22:56:18.048Z,16.60
2018-04-08T22:58:44.395Z,16.90
2018-04-08T23:01:10.755Z,16.90
2018-04-08T23:03:37.019Z,16.80
2018-04-08T23:06:03.246Z,16.70
2018-04-08T23:08:30.371Z,16.60
2018-04-08T23:10:56.674Z,16.50
2018-04-08T23:13:23.687Z,16.50
2018-04-08T23:15:49.979Z,16.50
2018-04-08T23:18:16.289Z,16.50
2018-04-08T23:20:43.319Z,16.40
2018-04-08T23:23:09.584Z,16.40
2018-04-08T23:25:35.851Z,16.30
2018-04-08T23:28:02.867Z,16.30
2018-04-08T23:30:29.194Z,16.30
2018-04-08T23:32:55.532Z,16.70
2018-04-08T23:35:21.773Z,16.40
2018-04-08T23:37:48.062Z,16.20
2018-04-08T23:40:14.378Z,16.20
2018-04-08T23:42:40.704Z,15.90
2018-04-08T23:45:06.972Z,16.10
2018-04-08T23:47:33.333Z,16.00
2018-04-08T23:49:59.664Z,16.10
2018-04-08T23:52:25.975Z,15.90
2018-04-08T23:54:53.054Z,15.80
2018-04-08T23:57:20.094Z,15.80
2018-04-08T23:59:46.408Z,15.80
